createdAt,value
2018-09-30T00:00:18.564Z,7.07
2018-09-30T00:01:28.249Z,7.05
2018-09-30T00:02:38.188Z,7.08
2018-09-30T00:03:48.129Z,7.04
2018-09-30T00:04:58.078Z,7.13
2018-09-30T00:06:07.760Z,7.1
2018-09-30T00:07:17.698Z,7.22
2018-09-30T00:08:27.377Z,7.15
2018-09-30T00:09:37.059Z,7.19
2018-09-30T00:10:47.002Z,7.23
2018-09-30T00:11:56.941Z,7.15
2018-09-30T00:13:06.880Z,7.21
2018-09-30T00:14:16.825Z,7.22
2018-09-30T00:15:26.260Z,7.33
2018-09-30T00:16:36.246Z,7.19
2018-09-30T00:17:46.207Z,7.31
2018-09-30T00:18:55.903Z,7.18
2018-09-30T00:20:05.326Z,7.19
2018-09-30T00:21:14.997Z,7.21
2018-09-30T00:22:24.936Z,7.22
2018-09-30T00:23:34.887Z,7.21
2018-09-30T00:24:44.825Z,7.13
2018-09-30T00:25:54.514Z,7.14
2018-09-30T00:27:04.450Z,7.18
2018-09-30T00:28:14.121Z,7.14
2018-09-30T00:29:24.077Z,7.07
2018-09-30T00:30:34.008Z,7.01
2018-09-30T00:31:43.951Z,7.15
2018-09-30T00:32:53.917Z,7.13
2018-09-30T00:34:03.865Z,7.15
2018-09-30T00:35:13.816Z,7.04
2018-09-30T00:36:23.768Z,7.01
2018-09-30T00:37:33.621Z,7.05
2018-09-30T00:38:43.290Z,7.03
2018-09-30T00:39:53.231Z,7.08
2018-09-30T00:41:02.924Z,7.04
2018-09-30T00:42:12.876Z,7
2018-09-30T00:43:22.322Z,7.01
2018-09-30T00:44:32.256Z,7.07
2018-09-30T00:45:41.928Z,7.04
2018-09-30T00:46:51.862Z,7.03
2018-09-30T00:48:01.801Z,6.95
2018-09-30T00:49:11.472Z,6.96
2018-09-30T00:50:21.402Z,6.97
2018-09-30T00:51:31.081Z,6.87
2018-09-30T00:52:41.044Z,6.83
2018-09-30T00:53:50.978Z,6.87
2018-09-30T00:55:00.915Z,6.85
2018-09-30T00:56:10.866Z,6.89
2018-09-30T00:57:20.814Z,6.85
2018-09-30T00:58:30.235Z,6.86
2018-09-30T00:59:39.917Z,6.83
2018-09-30T01:00:49.866Z,6.8
2018-09-30T01:01:59.544Z,6.77
2018-09-30T01:03:09.482Z,6.74
2018-09-30T01:04:19.426Z,6.78
2018-09-30T01:05:29.088Z,6.8
2018-09-30T01:06:38.764Z,6.85
2018-09-30T01:07:48.699Z,6.8
2018-09-30T01:08:58.378Z,6.87
2018-09-30T01:10:08.325Z,6.9
2018-09-30T01:11:17.999Z,6.9
2018-09-30T01:12:27.935Z,6.87
2018-09-30T01:13:37.888Z,6.86
2018-09-30T01:14:47.862Z,6.82
2018-09-30T01:15:57.797Z,6.78
2018-09-30T01:17:07.740Z,6.74
2018-09-30T01:18:17.679Z,6.74
2018-09-30T01:19:27.621Z,6.68
2018-09-30T01:20:37.297Z,6.71
2018-09-30T01:21:46.975Z,6.72
2018-09-30T01:22:56.673Z,6.64
2018-09-30T01:24:06.362Z,6.67
2018-09-30T01:25:16.296Z,6.7
2018-09-30T01:26:26.244Z,6.64
2018-09-30T01:27:36.171Z,6.59
2018-09-30T01:28:46.108Z,6.53
2018-09-30T01:29:55.777Z,6.6
2018-09-30T01:31:05.722Z,6.56
2018-09-30T01:32:15.664Z,6.52
2018-09-30T01:33:25.338Z,6.46
2018-09-30T01:34:35.282Z,6.35
2018-09-30T01:35:45.222Z,6.39
2018-09-30T01:36:54.903Z,6.31
2018-09-30T01:38:04.862Z,6.38
2018-09-30T01:39:14.549Z,6.31
2018-09-30T01:40:24.231Z,6.32
2018-09-30T01:41:34.169Z,6.31
2018-09-30T01:42:43.603Z,6.28
2018-09-30T01:43:53.290Z,6.29
2018-09-30T01:45:03.234Z,6.34
2018-09-30T01:46:13.173Z,6.41
2018-09-30T01:47:22.856Z,6.47
2018-09-30T01:48:32.783Z,6.35
2018-09-30T01:49:42.728Z,6.41
2018-09-30T01:50:52.665Z,6.36
2018-09-30T01:52:02.348Z,6.39
2018-09-30T01:53:12.273Z,6.41
2018-09-30T01:54:21.956Z,6.52
2018-09-30T01:55:31.896Z,6.49
2018-09-30T01:56:41.826Z,6.39
2018-09-30T01:57:51.761Z,6.39
2018-09-30T01:59:01.689Z,6.38
2018-09-30T02:00:11.365Z,6.38
2018-09-30T02:01:20.799Z,6.36
2018-09-30T02:02:30.233Z,6.25
2018-09-30T02:03:40.173Z,6.2
2018-09-30T02:04:50.177Z,6.13
2018-09-30T02:06:00.121Z,6.13
2018-09-30T02:07:10.056Z,6.07
2018-09-30T02:08:19.739Z,6.15
2018-09-30T02:09:29.676Z,6.06
2018-09-30T02:10:39.627Z,6.17
2018-09-30T02:11:49.552Z,6.06
2018-09-30T02:12:59.510Z,6.1
2018-09-30T02:14:09.193Z,6.1
2018-09-30T02:15:19.132Z,6.02
2018-09-30T02:16:28.551Z,6.05
2018-09-30T02:17:38.230Z,6.05
2018-09-30T02:18:48.172Z,6.12
2018-09-30T02:19:58.105Z,6.02
2018-09-30T02:21:08.059Z,6.01
2018-09-30T02:22:17.996Z,6.09
2018-09-30T02:23:27.678Z,6.06
2018-09-30T02:24:37.619Z,5.95
2018-09-30T02:25:47.291Z,6.06
2018-09-30T02:26:57.232Z,6.09
2018-09-30T02:28:07.181Z,6.02
2018-09-30T02:29:16.861Z,6.06
2018-09-30T02:30:26.535Z,6.06
2018-09-30T02:31:36.293Z,5.98
2018-09-30T02:32:46.238Z,6.06
2018-09-30T02:33:56.200Z,6.05
2018-09-30T02:35:05.891Z,5.97
2018-09-30T02:36:15.297Z,6.01
2018-09-30T02:37:25.258Z,6.02
2018-09-30T02:38:35.199Z,5.99
2018-09-30T02:39:45.142Z,5.94
2018-09-30T02:40:54.839Z,5.9
2018-09-30T02:42:04.780Z,5.84
2018-09-30T02:43:14.710Z,5.9
2018-09-30T02:44:24.658Z,5.81
2018-09-30T02:45:34.608Z,5.8
2018-09-30T02:46:44.306Z,5.7
2018-09-30T02:47:53.987Z,5.81
2018-09-30T02:49:03.417Z,5.62
2018-09-30T02:50:13.181Z,5.74
2018-09-30T02:51:23.351Z,5.65
2018-09-30T02:52:32.788Z,5.74
2018-09-30T02:53:42.211Z,5.64
2018-09-30T02:54:52.143Z,5.59
2018-09-30T02:56:02.115Z,5.51
2018-09-30T02:57:12.042Z,5.61
2018-09-30T02:58:21.734Z,5.56
2018-09-30T02:59:31.677Z,5.61
2018-09-30T03:00:41.614Z,5.54
2018-09-30T03:01:51.312Z,5.58
2018-09-30T03:03:01.282Z,5.58
2018-09-30T03:04:11.222Z,5.47
2018-09-30T03:05:21.172Z,5.58
2018-09-30T03:06:31.116Z,5.61
2018-09-30T03:07:40.801Z,5.44
2018-09-30T03:08:50.729Z,5.43
2018-09-30T03:10:00.664Z,5.51
2018-09-30T03:11:10.354Z,5.49
2018-09-30T03:12:20.036Z,5.41
2018-09-30T03:13:29.979Z,5.46
2018-09-30T03:14:39.914Z,5.49
2018-09-30T03:15:49.598Z,5.49
2018-09-30T03:16:59.276Z,5.49
2018-09-30T03:18:08.964Z,5.38
2018-09-30T03:19:18.903Z,5.4
2018-09-30T03:20:28.856Z,5.34
2018-09-30T03:21:38.537Z,5.29
2018-09-30T03:22:48.208Z,5.38
2018-09-30T03:23:58.151Z,5.28
2018-09-30T03:25:07.584Z,5.31
2018-09-30T03:26:17.540Z,5.31
2018-09-30T03:27:27.216Z,5.31
2018-09-30T03:28:37.145Z,5.38
2018-09-30T03:29:47.090Z,5.31
2018-09-30T03:30:57.030Z,5.28
2018-09-30T03:32:07.004Z,5.26
2018-09-30T03:33:16.962Z,5.31
2018-09-30T03:34:26.887Z,5.26
2018-09-30T03:35:36.309Z,5.23
2018-09-30T03:36:46.236Z,5.26
2018-09-30T03:37:56.177Z,5.25
2018-09-30T03:39:06.120Z,5.25
2018-09-30T03:40:16.048Z,5.29
2018-09-30T03:41:25.983Z,5.25
2018-09-30T03:42:35.913Z,5.19
2018-09-30T03:43:45.848Z,5.19
2018-09-30T03:44:55.771Z,5.2
2018-09-30T03:46:05.718Z,5.22
2018-09-30T03:47:15.661Z,5.16
2018-09-30T03:48:25.602Z,5.2
2018-09-30T03:49:35.582Z,5.2
2018-09-30T03:50:45.525Z,5.15
2018-09-30T03:51:55.199Z,5.15
2018-09-30T03:53:05.156Z,5.15
2018-09-30T03:54:15.097Z,5.2
2018-09-30T03:55:25.046Z,5.1
2018-09-30T03:56:34.960Z,5.15
2018-09-30T03:57:45.178Z,5.13
2018-09-30T03:58:54.876Z,5.08
2018-09-30T04:00:04.572Z,5.1
2018-09-30T04:01:14.011Z,5.04
2018-09-30T04:02:23.701Z,5.12
2018-09-30T04:03:33.648Z,5.2
2018-09-30T04:04:49.939Z,5.15
2018-09-30T04:05:59.906Z,5.15
2018-09-30T04:07:09.605Z,5.15
2018-09-30T04:08:19.534Z,5.12
2018-09-30T04:09:29.649Z,5.18
2018-09-30T04:10:39.719Z,5.15
2018-09-30T04:11:49.660Z,5.16
2018-09-30T04:12:59.355Z,5.1
2018-09-30T04:14:09.037Z,5.15
2018-09-30T04:15:18.969Z,5.13
2018-09-30T04:16:28.912Z,5.23
2018-09-30T04:17:38.833Z,5.25
2018-09-30T04:18:48.511Z,5.2
2018-09-30T04:19:58.450Z,5.22
2018-09-30T04:21:08.380Z,5.23
2018-09-30T04:22:18.059Z,5.22
2018-09-30T04:23:27.991Z,5.19
2018-09-30T04:24:37.943Z,5.19
2018-09-30T04:25:47.894Z,5.18
2018-09-30T04:26:57.839Z,5.12
2018-09-30T04:28:07.777Z,5.19
2018-09-30T04:29:17.710Z,5.12
2018-09-30T04:30:27.438Z,5.1
2018-09-30T04:31:37.137Z,5.12
2018-09-30T04:32:47.079Z,5.16
2018-09-30T04:33:56.762Z,5.02
2018-09-30T04:35:06.707Z,5.04
2018-09-30T04:36:16.124Z,5.05
2018-09-30T04:37:26.081Z,5.05
2018-09-30T04:38:35.777Z,5.1
2018-09-30T04:39:45.738Z,5.08
2018-09-30T04:40:55.669Z,5
2018-09-30T04:42:05.676Z,5.02
2018-09-30T04:43:15.624Z,5.01
2018-09-30T04:44:25.312Z,5.01
2018-09-30T04:45:34.751Z,5.07
2018-09-30T04:46:44.686Z,5.04
2018-09-30T04:47:54.107Z,5.04
2018-09-30T04:49:03.803Z,5.04
2018-09-30T04:50:13.818Z,5
2018-09-30T04:51:23.746Z,5
2018-09-30T04:52:33.685Z,5.02
2018-09-30T04:53:43.623Z,4.97
2018-09-30T04:54:53.312Z,4.94
2018-09-30T04:56:02.986Z,5
2018-09-30T04:57:12.939Z,4.89
2018-09-30T04:58:22.630Z,4.84
2018-09-30T04:59:31.794Z,4.79
2018-09-30T05:00:41.744Z,4.71
2018-09-30T05:01:51.457Z,4.83
2018-09-30T05:03:01.406Z,4.7
2018-09-30T05:04:11.353Z,4.71
2018-09-30T05:05:20.782Z,4.67
2018-09-30T05:06:30.514Z,4.71
2018-09-30T05:07:40.210Z,4.68
2018-09-30T05:08:50.156Z,4.64
2018-09-30T05:10:00.102Z,4.71
2018-09-30T05:11:09.806Z,4.61
2018-09-30T05:12:19.229Z,4.63
2018-09-30T05:13:29.175Z,4.6
2018-09-30T05:14:39.121Z,4.66
2018-09-30T05:15:49.103Z,4.68
2018-09-30T05:16:58.848Z,4.64
2018-09-30T05:18:08.531Z,4.63
2018-09-30T05:19:18.477Z,4.66
2018-09-30T05:20:28.163Z,4.56
2018-09-30T05:21:38.109Z,4.66
2018-09-30T05:22:48.063Z,4.6
2018-09-30T05:23:57.736Z,4.64
2018-09-30T05:25:07.421Z,4.68
2018-09-30T05:26:17.111Z,4.58
2018-09-30T05:27:26.811Z,4.63
2018-09-30T05:28:36.749Z,4.64
2018-09-30T05:29:46.680Z,4.64
2018-09-30T05:30:56.368Z,4.6
2018-09-30T05:32:06.063Z,4.58
2018-09-30T05:33:15.751Z,4.58
2018-09-30T05:34:25.690Z,4.63
2018-09-30T05:35:35.641Z,4.64
2018-09-30T05:36:45.589Z,4.68
2018-09-30T05:37:55.530Z,4.66
2018-09-30T05:39:05.489Z,4.74
2018-09-30T05:40:15.435Z,4.7
2018-09-30T05:41:25.379Z,4.71
2018-09-30T05:42:35.443Z,4.86
2018-09-30T05:43:45.142Z,4.84
2018-09-30T05:44:54.842Z,4.94
2018-09-30T05:46:04.513Z,4.98
2018-09-30T05:47:14.452Z,4.98
2018-09-30T05:48:24.383Z,5
2018-09-30T05:49:34.069Z,5.01
2018-09-30T05:50:44.012Z,5.05
2018-09-30T05:51:53.952Z,5.08
2018-09-30T05:53:03.628Z,5.18
2018-09-30T05:54:13.322Z,5.1
2018-09-30T05:55:23.005Z,5.16
2018-09-30T05:56:32.958Z,5.16
2018-09-30T05:57:43.263Z,5.18
2018-09-30T05:58:53.457Z,5.16
2018-09-30T06:00:03.137Z,5.18
2018-09-30T06:01:13.096Z,5.22
2018-09-30T06:02:23.044Z,5.22
2018-09-30T06:03:32.216Z,5.19
2018-09-30T06:04:42.172Z,5.23
2018-09-30T06:05:51.851Z,5.28
2018-09-30T06:07:01.553Z,5.37
2018-09-30T06:08:10.732Z,5.36
2018-09-30T06:09:20.798Z,5.29
2018-09-30T06:10:30.923Z,5.36
2018-09-30T06:11:40.870Z,5.34
2018-09-30T06:12:50.561Z,5.37
2018-09-30T06:14:00.480Z,5.38
2018-09-30T06:15:10.450Z,5.4
2018-09-30T06:16:20.391Z,5.43
2018-09-30T06:17:30.068Z,5.38
2018-09-30T06:18:39.770Z,5.46
2018-09-30T06:19:49.721Z,5.43
2018-09-30T06:20:59.660Z,5.43
2018-09-30T06:22:09.585Z,5.51
2018-09-30T06:23:19.528Z,5.49
2018-09-30T06:24:29.488Z,5.59
2018-09-30T06:25:38.923Z,5.58
2018-09-30T06:26:48.885Z,5.54
2018-09-30T06:27:58.820Z,5.51
2018-09-30T06:29:08.498Z,5.67
2018-09-30T06:30:18.454Z,5.7
2018-09-30T06:31:28.136Z,5.67
2018-09-30T06:32:38.127Z,5.72
2018-09-30T06:33:48.069Z,5.77
2018-09-30T06:34:57.999Z,5.74
2018-09-30T06:36:07.695Z,5.8
2018-09-30T06:37:17.920Z,5.88
2018-09-30T06:38:27.994Z,6.06
2018-09-30T06:39:37.685Z,5.99
2018-09-30T06:40:47.642Z,6.13
2018-09-30T06:41:57.312Z,6.1
2018-09-30T06:43:07.051Z,6.16
2018-09-30T06:44:16.997Z,6.17
2018-09-30T06:45:27.107Z,6.13
2018-09-30T06:46:37.441Z,6.32
2018-09-30T06:47:46.875Z,6.28
2018-09-30T06:48:56.569Z,6.34
2018-09-30T06:50:06.521Z,6.38
2018-09-30T06:51:16.459Z,6.35
2018-09-30T06:52:26.664Z,6.44
2018-09-30T06:53:36.620Z,6.5
2018-09-30T06:54:46.563Z,6.49
2018-09-30T06:55:56.107Z,6.59
2018-09-30T06:57:06.038Z,6.52
2018-09-30T06:58:15.985Z,6.7
2018-09-30T06:59:25.668Z,6.71
2018-09-30T07:00:35.362Z,6.87
2018-09-30T07:01:45.324Z,6.83
2018-09-30T07:02:55.002Z,6.92
2018-09-30T07:04:04.695Z,6.96
2018-09-30T07:05:14.367Z,7.08
2018-09-30T07:06:24.312Z,7.18
2018-09-30T07:07:33.736Z,7.15
2018-09-30T07:08:43.450Z,7.31
2018-09-30T07:09:53.404Z,7.33
2018-09-30T07:11:03.549Z,7.41
2018-09-30T07:12:13.502Z,7.51
2018-09-30T07:13:23.430Z,7.61
2018-09-30T07:14:33.130Z,7.77
2018-09-30T07:15:43.058Z,7.7
2018-09-30T07:16:52.992Z,7.8
2018-09-30T07:18:02.896Z,7.88
2018-09-30T07:19:12.873Z,7.95
2018-09-30T07:20:22.307Z,7.99
2018-09-30T07:21:32.253Z,8.03
2018-09-30T07:22:42.479Z,8.18
2018-09-30T07:23:52.652Z,8.18
2018-09-30T07:25:02.338Z,8.39
2018-09-30T07:26:12.289Z,8.35
2018-09-30T07:27:21.960Z,8.53
2018-09-30T07:28:31.902Z,8.56
2018-09-30T07:29:41.843Z,8.63
2018-09-30T07:30:51.280Z,8.69
2018-09-30T07:32:00.954Z,8.84
2018-09-30T07:33:10.899Z,8.82
2018-09-30T07:34:20.853Z,8.86
2018-09-30T07:35:30.825Z,9
2018-09-30T07:36:40.776Z,9.05
2018-09-30T07:37:50.719Z,9.09
2018-09-30T07:39:00.694Z,9.12
2018-09-30T07:40:10.368Z,9.16
2018-09-30T07:41:20.299Z,9.22
2018-09-30T07:42:30.250Z,9.26
2018-09-30T07:43:40.198Z,9.45
2018-09-30T07:44:49.878Z,9.4
2018-09-30T07:45:59.850Z,9.49
2018-09-30T07:47:09.813Z,9.59
2018-09-30T07:48:19.511Z,9.67
2018-09-30T07:49:29.461Z,9.76
2018-09-30T07:50:39.397Z,9.81
2018-09-30T07:51:49.348Z,9.9
2018-09-30T07:52:59.046Z,10.02
2018-09-30T07:54:09.032Z,10.06
2018-09-30T07:55:19.004Z,10.09
2018-09-30T07:56:28.453Z,10.12
2018-09-30T07:57:38.410Z,10.21
2018-09-30T07:58:48.100Z,10.33
2018-09-30T07:59:58.043Z,10.21
2018-09-30T08:01:07.756Z,10.28
2018-09-30T08:02:17.691Z,10.43
2018-09-30T08:03:27.379Z,10.58
2018-09-30T08:04:37.070Z,10.79
2018-09-30T08:05:46.760Z,10.92
2018-09-30T08:06:56.722Z,10.94
2018-09-30T08:08:06.660Z,11.26
2018-09-30T08:09:16.625Z,11.52
2018-09-30T08:10:26.591Z,11.55
2018-09-30T08:11:36.556Z,11.74
2018-09-30T08:12:46.517Z,11.71
2018-09-30T08:13:56.454Z,11.73
2018-09-30T08:15:06.410Z,11.73
2018-09-30T08:16:16.372Z,11.83
2018-09-30T08:17:26.472Z,11.89
2018-09-30T08:18:36.432Z,11.93
2018-09-30T08:19:46.374Z,11.99
2018-09-30T08:20:56.050Z,12.28
2018-09-30T08:22:06.004Z,12.36
2018-09-30T08:23:15.978Z,12.4
2018-09-30T08:24:26.205Z,12.51
2018-09-30T08:25:36.454Z,12.39
2018-09-30T08:26:46.408Z,12.3
2018-09-30T08:27:56.381Z,12.33
2018-09-30T08:29:06.356Z,12.35
2018-09-30T08:30:16.306Z,12.47
2018-09-30T08:31:26.258Z,12.47
2018-09-30T08:32:36.199Z,12.66
2018-09-30T08:33:46.148Z,12.84
2018-09-30T08:34:55.868Z,12.98
2018-09-30T08:36:05.575Z,12.95
2018-09-30T08:37:15.525Z,12.99
2018-09-30T08:38:25.497Z,13.27
2018-09-30T08:39:35.446Z,13.36
2018-09-30T08:40:45.699Z,13.47
2018-09-30T08:41:55.670Z,13.58
2018-09-30T08:43:05.366Z,13.65
2018-09-30T08:44:15.024Z,13.5
2018-09-30T08:45:24.481Z,13.45
2018-09-30T08:46:34.548Z,13.54
2018-09-30T08:47:44.487Z,13.37
2018-09-30T08:48:54.888Z,13.33
2018-09-30T08:50:04.854Z,13.4
2018-09-30T08:51:14.798Z,13.23
2018-09-30T08:52:24.492Z,13.16
2018-09-30T08:53:34.486Z,13.13
2018-09-30T08:54:44.175Z,13.2
2018-09-30T08:55:54.166Z,13.46
2018-09-30T08:57:04.246Z,13.67
2018-09-30T08:58:14.198Z,13.98
2018-09-30T08:59:23.901Z,14.13
2018-09-30T09:00:33.865Z,14.26
2018-09-30T09:01:43.836Z,14.18
2018-09-30T09:02:53.540Z,14.26
2018-09-30T09:04:03.621Z,14.11
2018-09-30T09:05:13.581Z,14.36
2018-09-30T09:06:23.551Z,14.51
2018-09-30T09:07:33.554Z,14.4
2018-09-30T09:08:43.240Z,14.62
2018-09-30T09:09:53.389Z,14.79
2018-09-30T09:11:03.889Z,14.73
2018-09-30T09:12:13.593Z,14.81
2018-09-30T09:13:23.536Z,14.85
2018-09-30T09:14:33.477Z,14.93
2018-09-30T09:15:43.575Z,14.9
2018-09-30T09:16:53.271Z,14.94
2018-09-30T09:18:03.233Z,15.22
2018-09-30T09:19:12.930Z,15.44
2018-09-30T09:20:22.885Z,15.67
2018-09-30T09:21:32.580Z,15.73
2018-09-30T09:22:42.585Z,15.78
2018-09-30T09:23:52.752Z,15.81
2018-09-30T09:25:02.717Z,15.7
2018-09-30T09:26:12.683Z,15.52
2018-09-30T09:27:22.629Z,15.51
2018-09-30T09:28:32.587Z,15.45
2018-09-30T09:29:42.290Z,15.52
2018-09-30T09:30:51.996Z,15.73
2018-09-30T09:32:01.691Z,15.84
2018-09-30T09:33:12.167Z,15.91
2018-09-30T09:34:22.214Z,16.09
2018-09-30T09:35:32.169Z,16.13
2018-09-30T09:36:41.878Z,16.25
2018-09-30T09:37:51.821Z,16.59
2018-09-30T09:39:01.549Z,16.69
2018-09-30T09:40:11.514Z,16.97
2018-09-30T09:41:21.479Z,16.89
2018-09-30T09:42:31.182Z,17.02
2018-09-30T09:43:41.141Z,17.12
2018-09-30T09:44:51.085Z,17.12
2018-09-30T09:46:01.049Z,17.13
2018-09-30T09:47:11.360Z,17.38
2018-09-30T09:48:21.373Z,17.49
2018-09-30T09:49:31.077Z,17.49
2018-09-30T09:50:41.030Z,17.31
2018-09-30T09:51:50.996Z,17.5
2018-09-30T09:53:00.689Z,17.5
2018-09-30T09:54:10.662Z,17.63
2018-09-30T09:55:20.615Z,17.78
2018-09-30T09:56:30.594Z,17.54
2018-09-30T09:57:40.289Z,17.49
2018-09-30T09:58:50.390Z,17.53
2018-09-30T10:00:00.615Z,17.57
2018-09-30T10:01:10.596Z,17.82
2018-09-30T10:02:20.554Z,18.28
2018-09-30T10:03:30.248Z,18.28
2018-09-30T10:04:40.227Z,18.24
2018-09-30T10:05:50.164Z,18.37
2018-09-30T10:06:59.873Z,18.39
2018-09-30T10:08:09.698Z,18.41
2018-09-30T10:09:19.904Z,18.23
2018-09-30T10:10:29.871Z,17.76
2018-09-30T10:11:39.582Z,17.6
2018-09-30T10:12:49.280Z,17.68
2018-09-30T10:13:58.718Z,17.63
2018-09-30T10:15:08.663Z,17.72
2018-09-30T10:16:18.665Z,17.78
2018-09-30T10:17:28.624Z,17.8
2018-09-30T10:18:38.342Z,18.26
2018-09-30T10:19:48.309Z,18.43
2018-09-30T10:20:58.276Z,18.58
2018-09-30T10:22:08.235Z,18.33
2018-09-30T10:23:17.712Z,18.05
2018-09-30T10:24:27.674Z,18.02
2018-09-30T10:25:37.649Z,18.03
2018-09-30T10:26:47.604Z,18.05
2018-09-30T10:27:57.686Z,17.91
2018-09-30T10:29:07.674Z,17.88
2018-09-30T10:30:17.655Z,17.65
2018-09-30T10:31:27.359Z,17.57
2018-09-30T10:32:37.321Z,17.69
2018-09-30T10:33:47.281Z,17.52
2018-09-30T10:34:57.232Z,17.72
2018-09-30T10:36:07.214Z,17.86
2018-09-30T10:37:16.898Z,17.98
2018-09-30T10:38:26.926Z,18.13
2018-09-30T10:39:37.393Z,18.37
2018-09-30T10:40:47.090Z,18.43
2018-09-30T10:41:57.045Z,18.31
2018-09-30T10:43:07.005Z,18.31
2018-09-30T10:44:16.713Z,18.28
2018-09-30T10:45:26.409Z,18.03
2018-09-30T10:46:36.370Z,18.05
2018-09-30T10:47:46.342Z,18.05
2018-09-30T10:48:55.794Z,18
2018-09-30T10:50:05.751Z,17.8
2018-09-30T10:51:15.448Z,17.93
2018-09-30T10:52:25.416Z,18.15
2018-09-30T10:53:35.381Z,18.42
2018-09-30T10:54:45.360Z,18.48
2018-09-30T10:55:55.319Z,18.43
2018-09-30T10:57:05.269Z,18.37
2018-09-30T10:58:15.239Z,18.39
2018-09-30T10:59:25.222Z,18.34
2018-09-30T11:00:35.215Z,18.3
2018-09-30T11:01:44.910Z,18.34
2018-09-30T11:02:54.855Z,18.36
2018-09-30T11:04:04.571Z,18.41
2018-09-30T11:05:14.548Z,18.57
2018-09-30T11:06:24.528Z,18.78
2018-09-30T11:07:34.486Z,19.07
2018-09-30T11:08:44.192Z,18.96
2018-09-30T11:09:54.304Z,19.05
2018-09-30T11:11:04.443Z,18.89
2018-09-30T11:12:13.886Z,18.83
2018-09-30T11:13:23.572Z,19.12
2018-09-30T11:14:33.552Z,18.91
2018-09-30T11:15:43.250Z,19.09
2018-09-30T11:16:53.219Z,19.09
2018-09-30T11:18:03.171Z,19.05
2018-09-30T11:19:12.863Z,18.82
2018-09-30T11:20:22.821Z,18.97
2018-09-30T11:21:32.524Z,18.83
2018-09-30T11:22:42.618Z,18.82
2018-09-30T11:23:52.599Z,19.05
2018-09-30T11:25:02.294Z,19.32
2018-09-30T11:26:11.761Z,19.42
2018-09-30T11:27:21.751Z,19.53
2018-09-30T11:28:31.749Z,19.38
2018-09-30T11:29:41.694Z,19.34
2018-09-30T11:30:51.401Z,19.22
2018-09-30T11:32:01.646Z,19.39
2018-09-30T11:33:11.617Z,19.71
2018-09-30T11:34:21.320Z,19.82
2018-09-30T11:35:31.034Z,19.94
2018-09-30T11:36:40.992Z,20.12
2018-09-30T11:37:50.968Z,19.74
2018-09-30T11:39:00.415Z,19.67
2018-09-30T11:40:10.133Z,19.64
2018-09-30T11:41:20.069Z,19.49
2018-09-30T11:42:30.028Z,19.2
2018-09-30T11:43:40.043Z,19.23
2018-09-30T11:44:49.756Z,19.19
2018-09-30T11:45:59.453Z,19.44
2018-09-30T11:47:08.898Z,19.79
2018-09-30T11:48:18.339Z,19.99
2018-09-30T11:49:28.318Z,20.24
2018-09-30T11:50:38.276Z,20.08
2018-09-30T11:51:48.220Z,19.89
2018-09-30T11:52:58.183Z,19.87
2018-09-30T11:54:08.145Z,19.84
2018-09-30T11:55:18.136Z,19.97
2018-09-30T11:56:28.114Z,20.15
2018-09-30T11:57:38.077Z,20
2018-09-30T11:58:47.786Z,20.02
2018-09-30T11:59:57.790Z,20.4
2018-09-30T12:01:07.887Z,20.77
2018-09-30T12:02:17.478Z,20.93
2018-09-30T12:03:27.698Z,20.77
2018-09-30T12:04:37.658Z,20.75
2018-09-30T12:05:47.613Z,20.92
2018-09-30T12:06:57.638Z,21.11
2018-09-30T12:08:07.334Z,21.05
2018-09-30T12:09:17.029Z,21.01
2018-09-30T12:10:26.459Z,20.75
2018-09-30T12:11:36.417Z,20.83
2018-09-30T12:12:46.378Z,20.77
2018-09-30T12:13:56.099Z,20.89
2018-09-30T12:15:06.058Z,20.73
2018-09-30T12:16:16.010Z,20.11
2018-09-30T12:17:25.968Z,20.03
2018-09-30T12:18:35.968Z,20.26
2018-09-30T12:19:46.102Z,20.29
2018-09-30T12:20:55.816Z,20.52
2018-09-30T12:22:05.784Z,20.77
2018-09-30T12:23:15.745Z,20.75
2018-09-30T12:24:25.196Z,20.5
2018-09-30T12:25:35.149Z,20.73
2018-09-30T12:26:44.867Z,20.89
2018-09-30T12:27:54.826Z,21.28
2018-09-30T12:29:04.790Z,21.26
2018-09-30T12:30:14.772Z,20.88
2018-09-30T12:31:24.755Z,20.77
2018-09-30T12:32:34.725Z,20.6
2018-09-30T12:33:44.447Z,20.89
2018-09-30T12:34:54.163Z,20.86
2018-09-30T12:36:03.867Z,21.03
2018-09-30T12:37:13.830Z,21.22
2018-09-30T12:38:23.796Z,21.47
2018-09-30T12:39:33.753Z,21.41
2018-09-30T12:40:43.468Z,21.66
2018-09-30T12:41:53.424Z,21.91
2018-09-30T12:43:03.374Z,21.75
2018-09-30T12:44:13.314Z,21.7
2018-09-30T12:45:23.301Z,21.85
2018-09-30T12:46:33.278Z,21.97
2018-09-30T12:47:43.240Z,22.15
2018-09-30T12:48:53.321Z,21.69
2018-09-30T12:50:03.293Z,21.59
2018-09-30T12:51:12.985Z,21.63
2018-09-30T12:52:22.701Z,22.08
2018-09-30T12:53:32.655Z,22.06
2018-09-30T12:54:42.614Z,21.85
2018-09-30T12:55:52.574Z,21.6
2018-09-30T12:57:02.293Z,21.47
2018-09-30T12:58:12.684Z,21.54
2018-09-30T12:59:22.739Z,21.84
2018-09-30T13:00:32.704Z,21.69
2018-09-30T13:01:42.402Z,21.75
2018-09-30T13:02:52.369Z,21.89
2018-09-30T13:04:02.341Z,21.68
2018-09-30T13:05:12.339Z,21.51
2018-09-30T13:06:22.001Z,21.41
2018-09-30T13:07:31.698Z,21.47
2018-09-30T13:08:41.400Z,21.26
2018-09-30T13:09:51.372Z,21.25
2018-09-30T13:11:01.323Z,21.28
2018-09-30T13:12:11.273Z,21.32
2018-09-30T13:13:20.972Z,21.65
2018-09-30T13:14:30.989Z,21.63
2018-09-30T13:15:40.750Z,21.72
2018-09-30T13:16:50.721Z,21.85
2018-09-30T13:18:00.679Z,21.83
2018-09-30T13:19:10.645Z,21.66
2018-09-30T13:20:20.630Z,21.62
2018-09-30T13:21:30.695Z,21.66
2018-09-30T13:22:40.650Z,21.6
2018-09-30T13:23:50.639Z,21.65
2018-09-30T13:25:00.612Z,21.68
2018-09-30T13:26:10.324Z,21.45
2018-09-30T13:27:20.296Z,21.26
2018-09-30T13:28:29.991Z,21.04
2018-09-30T13:29:39.966Z,21.03
2018-09-30T13:30:49.919Z,20.85
2018-09-30T13:31:59.625Z,20.83
2018-09-30T13:33:09.067Z,20.89
2018-09-30T13:34:18.766Z,21.33
2018-09-30T13:35:28.737Z,21.43
2018-09-30T13:36:38.699Z,21.6
2018-09-30T13:37:48.715Z,21.83
2018-09-30T13:38:58.668Z,21.83
2018-09-30T13:40:08.831Z,21.96
2018-09-30T13:41:19.769Z,21.75
2018-09-30T13:42:30.139Z,21.66
2018-09-30T13:43:40.091Z,21.85
2018-09-30T13:44:50.054Z,21.89
2018-09-30T13:45:59.836Z,21.99
2018-09-30T13:47:09.901Z,22.12
2018-09-30T13:48:19.864Z,22.38
2018-09-30T13:49:29.824Z,22.4
2018-09-30T13:50:39.548Z,22.43
2018-09-30T13:51:49.256Z,22.19
2018-09-30T13:53:03.710Z,22.16
2018-09-30T13:54:22.766Z,21.94
2018-09-30T13:55:35.532Z,21.68
2018-09-30T13:56:51.767Z,21.62
2018-09-30T13:58:01.744Z,21.8
2018-09-30T13:59:11.448Z,21.96
2018-09-30T14:00:21.425Z,22.16
2018-09-30T14:01:31.151Z,22.06
2018-09-30T14:02:41.129Z,22.06
2018-09-30T14:03:51.089Z,22
2018-09-30T14:05:01.040Z,22.06
2018-09-30T14:06:10.506Z,21.8
2018-09-30T14:07:20.465Z,21.62
2018-09-30T14:08:30.426Z,21.54
2018-09-30T14:09:40.400Z,21.62
2018-09-30T14:10:50.121Z,21.37
2018-09-30T14:11:59.848Z,21.41
2018-09-30T14:13:09.820Z,21.41
2018-09-30T14:14:19.795Z,21.4
2018-09-30T14:15:29.757Z,21.25
2018-09-30T14:16:39.465Z,21.1
2018-09-30T14:17:48.905Z,20.88
2018-09-30T14:18:58.889Z,20.88
2018-09-30T14:20:08.855Z,21.03
2018-09-30T14:21:18.815Z,21.33
2018-09-30T14:22:29.029Z,21.53
2018-09-30T14:23:38.981Z,21.65
2018-09-30T14:24:48.943Z,21.83
2018-09-30T14:25:58.919Z,21.6
2018-09-30T14:27:08.860Z,21.68
2018-09-30T14:28:19.213Z,21.8
2018-09-30T14:29:28.924Z,21.75
2018-09-30T14:30:38.884Z,21.94
2018-09-30T14:31:48.851Z,21.91
2018-09-30T14:32:58.564Z,21.68
2018-09-30T14:34:08.742Z,21.51
2018-09-30T14:35:18.938Z,21.43
2018-09-30T14:36:28.884Z,21.4
2018-09-30T14:37:38.586Z,21.4
2018-09-30T14:38:48.547Z,21.29
2018-09-30T14:39:58.267Z,21.35
2018-09-30T14:41:08.237Z,21.22
2018-09-30T14:42:17.960Z,21.29
2018-09-30T14:43:27.927Z,21.38
2018-09-30T14:44:37.899Z,21.38
2018-09-30T14:45:47.869Z,21.29
2018-09-30T14:46:57.828Z,21.01
2018-09-30T14:48:07.739Z,20.63
2018-09-30T14:49:18.183Z,20.55
2018-09-30T14:50:28.135Z,20.55
2018-09-30T14:51:37.838Z,20.55
2018-09-30T14:52:47.780Z,20.44
2018-09-30T14:53:57.879Z,20.59
2018-09-30T14:55:08.087Z,20.52
2018-09-30T14:56:17.799Z,20.67
2018-09-30T14:57:27.254Z,20.71
2018-09-30T14:58:36.962Z,20.64
2018-09-30T14:59:46.896Z,20.82
2018-09-30T15:00:56.613Z,20.92
2018-09-30T15:02:06.327Z,20.82
2018-09-30T15:03:15.759Z,20.55
2018-09-30T15:04:25.704Z,20.53
2018-09-30T15:05:35.678Z,20.63
2018-09-30T15:06:45.666Z,20.86
2018-09-30T15:07:55.647Z,21.07
2018-09-30T15:09:05.347Z,21.32
2018-09-30T15:10:15.311Z,21.47
2018-09-30T15:11:25.302Z,21.45
2018-09-30T15:12:35.264Z,21.28
2018-09-30T15:13:45.236Z,20.82
2018-09-30T15:14:54.949Z,20.75
2018-09-30T15:16:04.918Z,20.56
2018-09-30T15:17:14.623Z,20.63
2018-09-30T15:18:24.402Z,20.56
2018-09-30T15:19:34.359Z,20.5